sensor_id;sensor_type;location;lat;lon;timestamp;P1;durP1;ratioP1;P2;durP2;ratioP2
77955;SDS011;67152;36.266;32.294;2023-12-29T00:01:30;10.30;;;3.22;;
77955;SDS011;67152;36.266;32.294;2023-12-29T00:03:56;6.47;;;3.10;;
77955;SDS011;67152;36.266;32.294;2023-12-29T00:09:14;6.18;;;2.00;;
77955;SDS011;67152;36.266;32.294;2023-12-29T00:11:41;6.85;;;3.20;;
77955;SDS011;67152;36.266;32.294;2023-12-29T00:14:07;7.63;;;3.47;;
77955;SDS011;67152;36.266;32.294;2023-12-29T00:16:33;4.70;;;2.58;;
77955;SDS011;67152;36.266;32.294;2023-12-29T00:19:00;5.50;;;1.88;;
77955;SDS011;67152;36.266;32.294;2023-12-29T00:21:26;5.10;;;2.78;;
77955;SDS011;67152;36.266;32.294;2023-12-29T00:23:53;3.90;;;1.77;;
77955;SDS011;67152;36.266;32.294;2023-12-29T00:26:19;4.88;;;1.88;;
77955;SDS011;67152;36.266;32.294;2023-12-29T00:29:27;6.45;;;2.95;;
77955;SDS011;67152;36.266;32.294;2023-12-29T00:31:58;5.78;;;2.28;;
77955;SDS011;67152;36.266;32.294;2023-12-29T00:34:25;5.38;;;2.13;;
77955;SDS011;67152;36.266;32.294;2023-12-29T00:36:52;6.85;;;3.13;;
77955;SDS011;67152;36.266;32.294;2023-12-29T00:39:18;11.18;;;2.80;;
77955;SDS011;67152;36.266;32.294;2023-12-29T00:41:45;9.05;;;2.83;;
77955;SDS011;67152;36.266;32.294;2023-12-29T00:44:11;6.88;;;2.47;;
77955;SDS011;67152;36.266;32.294;2023-12-29T00:46:37;3.22;;;2.03;;
77955;SDS011;67152;36.266;32.294;2023-12-29T00:49:03;3.90;;;2.42;;
77955;SDS011;67152;36.266;32.294;2023-12-29T00:51:30;7.35;;;3.60;;
77955;SDS011;67152;36.266;32.294;2023-12-29T00:53:56;14.07;;;4.82;;
77955;SDS011;67152;36.266;32.294;2023-12-29T00:56:22;4.70;;;2.38;;
77955;SDS011;67152;36.266;32.294;2023-12-29T00:58:48;6.40;;;3.15;;
77955;SDS011;67152;36.266;32.294;2023-12-29T01:01:15;9.60;;;3.83;;
77955;SDS011;67152;36.266;32.294;2023-12-29T01:03:41;6.75;;;3.90;;
77955;SDS011;67152;36.266;32.294;2023-12-29T01:06:07;8.05;;;3.45;;
77955;SDS011;67152;36.266;32.294;2023-12-29T01:08:34;5.93;;;2.83;;
77955;SDS011;67152;36.266;32.294;2023-12-29T01:11:00;7.97;;;3.40;;
77955;SDS011;67152;36.266;32.294;2023-12-29T01:13:26;7.57;;;3.05;;
77955;SDS011;67152;36.266;32.294;2023-12-29T01:15:53;4.70;;;2.20;;
77955;SDS011;67152;36.266;32.294;2023-12-29T01:18:19;11.60;;;1.95;;
77955;SDS011;67152;36.266;32.294;2023-12-29T01:20:46;4.95;;;2.08;;
77955;SDS011;67152;36.266;32.294;2023-12-29T01:23:12;3.50;;;2.00;;
77955;SDS011;67152;36.266;32.294;2023-12-29T01:25:38;3.78;;;1.90;;
77955;SDS011;67152;36.266;32.294;2023-12-29T01:28:04;3.05;;;1.65;;
77955;SDS011;67152;36.266;32.294;2023-12-29T01:30:31;5.55;;;3.17;;
77955;SDS011;67152;36.266;32.294;2023-12-29T01:33:00;3.22;;;2.10;;
77955;SDS011;67152;36.266;32.294;2023-12-29T01:35:26;3.15;;;2.17;;
77955;SDS011;67152;36.266;32.294;2023-12-29T01:37:53;7.30;;;3.20;;
77955;SDS011;67152;36.266;32.294;2023-12-29T01:40:21;5.25;;;2.63;;
77955;SDS011;67152;36.266;32.294;2023-12-29T01:42:47;5.35;;;2.67;;
77955;SDS011;67152;36.266;32.294;2023-12-29T01:45:23;3.42;;;1.95;;
77955;SDS011;67152;36.266;32.294;2023-12-29T01:50:21;8.45;;;3.00;;
77955;SDS011;67152;36.266;32.294;2023-12-29T01:52:49;4.68;;;2.72;;
77955;SDS011;67152;36.266;32.294;2023-12-29T01:55:17;6.68;;;3.22;;
77955;SDS011;67152;36.266;32.294;2023-12-29T01:57:45;8.73;;;2.88;;
77955;SDS011;67152;36.266;32.294;2023-12-29T02:00:11;5.72;;;2.80;;
77955;SDS011;67152;36.266;32.294;2023-12-29T02:02:38;6.93;;;3.27;;
77955;SDS011;67152;36.266;32.294;2023-12-29T02:05:05;6.28;;;3.15;;
77955;SDS011;67152;36.266;32.294;2023-12-29T02:07:32;9.63;;;3.17;;
77955;SDS011;67152;36.266;32.294;2023-12-29T02:09:58;8.07;;;2.72;;
77955;SDS011;67152;36.266;32.294;2023-12-29T02:12:25;7.07;;;3.30;;
77955;SDS011;67152;36.266;32.294;2023-12-29T02:14:51;6.80;;;3.03;;
77955;SDS011;67152;36.266;32.294;2023-12-29T02:17:22;4.45;;;2.85;;
77955;SDS011;67152;36.266;32.294;2023-12-29T02:19:52;6.32;;;3.30;;
77955;SDS011;67152;36.266;32.294;2023-12-29T02:22:18;6.63;;;3.20;;
77955;SDS011;67152;36.266;32.294;2023-12-29T02:24:51;7.07;;;3.45;;
77955;SDS011;67152;36.266;32.294;2023-12-29T02:30:25;6.05;;;3.20;;
77955;SDS011;67152;36.266;32.294;2023-12-29T02:32:54;7.80;;;3.03;;
77955;SDS011;67152;36.266;32.294;2023-12-29T02:35:29;9.30;;;2.78;;
77955;SDS011;67152;36.266;32.294;2023-12-29T02:37:58;6.70;;;2.85;;
77955;SDS011;67152;36.266;32.294;2023-12-29T02:40:25;7.35;;;3.30;;
77955;SDS011;67152;36.266;32.294;2023-12-29T02:42:52;8.07;;;3.20;;
77955;SDS011;67152;36.266;32.294;2023-12-29T02:45:18;5.80;;;2.85;;
77955;SDS011;67152;36.266;32.294;2023-12-29T02:47:45;5.22;;;3.03;;
77955;SDS011;67152;36.266;32.294;2023-12-29T02:50:11;8.27;;;3.60;;
77955;SDS011;67152;36.266;32.294;2023-12-29T02:52:38;8.93;;;3.95;;
77955;SDS011;67152;36.266;32.294;2023-12-29T02:55:04;5.72;;;2.95;;
77955;SDS011;67152;36.266;32.294;2023-12-29T02:57:31;6.20;;;3.17;;
77955;SDS011;67152;36.266;32.294;2023-12-29T02:59:57;11.13;;;3.33;;
77955;SDS011;67152;36.266;32.294;2023-12-29T03:02:23;5.55;;;3.03;;
77955;SDS011;67152;36.266;32.294;2023-12-29T03:04:50;5.97;;;3.78;;
77955;SDS011;67152;36.266;32.294;2023-12-29T03:07:16;9.20;;;2.70;;
77955;SDS011;67152;36.266;32.294;2023-12-29T03:09:43;5.82;;;3.05;;
77955;SDS011;67152;36.266;32.294;2023-12-29T03:12:09;6.75;;;1.88;;
77955;SDS011;67152;36.266;32.294;2023-12-29T03:14:35;4.82;;;2.70;;
77955;SDS011;67152;36.266;32.294;2023-12-29T03:17:01;2.75;;;1.92;;
77955;SDS011;67152;36.266;32.294;2023-12-29T03:19:28;4.95;;;2.60;;
77955;SDS011;67152;36.266;32.294;2023-12-29T03:21:54;8.38;;;2.90;;
77955;SDS011;67152;36.266;32.294;2023-12-29T03:24:20;10.20;;;2.80;;
77955;SDS011;67152;36.266;32.294;2023-12-29T03:26:47;7.45;;;2.42;;
77955;SDS011;67152;36.266;32.294;2023-12-29T03:29:13;3.35;;;2.00;;
77955;SDS011;67152;36.266;32.294;2023-12-29T03:31:39;4.75;;;1.75;;
77955;SDS011;67152;36.266;32.294;2023-12-29T03:34:06;4.22;;;1.98;;
77955;SDS011;67152;36.266;32.294;2023-12-29T03:36:32;7.50;;;2.38;;
77955;SDS011;67152;36.266;32.294;2023-12-29T03:38:58;2.47;;;1.63;;
77955;SDS011;67152;36.266;32.294;2023-12-29T03:41:24;6.88;;;2.67;;
77955;SDS011;67152;36.266;32.294;2023-12-29T03:43:51;8.25;;;3.20;;
77955;SDS011;67152;36.266;32.294;2023-12-29T03:46:20;4.80;;;2.65;;
77955;SDS011;67152;36.266;32.294;2023-12-29T03:48:47;8.50;;;3.00;;
77955;SDS011;67152;36.266;32.294;2023-12-29T03:51:14;5.60;;;3.07;;
77955;SDS011;67152;36.266;32.294;2023-12-29T03:53:41;7.45;;;3.25;;
77955;SDS011;67152;36.266;32.294;2023-12-29T03:56:07;11.45;;;3.70;;
77955;SDS011;67152;36.266;32.294;2023-12-29T03:58:34;10.75;;;4.00;;
77955;SDS011;67152;36.266;32.294;2023-12-29T04:01:01;6.63;;;4.10;;
77955;SDS011;67152;36.266;32.294;2023-12-29T04:03:27;7.22;;;3.75;;
77955;SDS011;67152;36.266;32.294;2023-12-29T04:05:54;5.70;;;3.35;;
77955;SDS011;67152;36.266;32.294;2023-12-29T04:08:20;9.23;;;2.95;;
77955;SDS011;67152;36.266;32.294;2023-12-29T04:10:46;7.78;;;4.50;;
77955;SDS011;67152;36.266;32.294;2023-12-29T04:13:12;12.15;;;3.95;;
77955;SDS011;67152;36.266;32.294;2023-12-29T04:15:39;12.73;;;4.70;;
77955;SDS011;67152;36.266;32.294;2023-12-29T04:18:05;9.85;;;5.53;;
77955;SDS011;67152;36.266;32.294;2023-12-29T04:20:31;13.88;;;8.02;;
77955;SDS011;67152;36.266;32.294;2023-12-29T04:22:57;14.88;;;5.90;;
77955;SDS011;67152;36.266;32.294;2023-12-29T04:25:25;13.68;;;5.90;;
77955;SDS011;67152;36.266;32.294;2023-12-29T04:27:51;8.18;;;4.47;;
77955;SDS011;67152;36.266;32.294;2023-12-29T04:30:17;9.85;;;4.60;;
77955;SDS011;67152;36.266;32.294;2023-12-29T04:32:43;10.38;;;4.93;;
77955;SDS011;67152;36.266;32.294;2023-12-29T04:35:10;7.47;;;4.68;;
77955;SDS011;67152;36.266;32.294;2023-12-29T04:37:38;11.45;;;4.85;;
77955;SDS011;67152;36.266;32.294;2023-12-29T04:40:05;8.77;;;4.30;;
77955;SDS011;67152;36.266;32.294;2023-12-29T04:42:32;18.77;;;5.45;;
77955;SDS011;67152;36.266;32.294;2023-12-29T04:44:58;10.63;;;4.97;;
77955;SDS011;67152;36.266;32.294;2023-12-29T04:47:24;16.35;;;5.20;;
77955;SDS011;67152;36.266;32.294;2023-12-29T04:49:50;14.35;;;6.38;;
77955;SDS011;67152;36.266;32.294;2023-12-29T04:52:17;10.77;;;5.80;;
77955;SDS011;67152;36.266;32.294;2023-12-29T04:54:43;14.23;;;6.35;;
77955;SDS011;67152;36.266;32.294;2023-12-29T04:57:09;24.88;;;7.70;;
77955;SDS011;67152;36.266;32.294;2023-12-29T04:59:35;11.27;;;4.47;;
77955;SDS011;67152;36.266;32.294;2023-12-29T05:02:02;9.68;;;5.35;;
77955;SDS011;67152;36.266;32.294;2023-12-29T05:04:28;10.38;;;4.53;;
77955;SDS011;67152;36.266;32.294;2023-12-29T05:06:54;8.35;;;3.97;;
77955;SDS011;67152;36.266;32.294;2023-12-29T05:09:21;9.63;;;3.42;;
77955;SDS011;67152;36.266;32.294;2023-12-29T05:11:48;17.40;;;5.22;;
77955;SDS011;67152;36.266;32.294;2023-12-29T05:14:14;8.40;;;4.00;;
77955;SDS011;67152;36.266;32.294;2023-12-29T05:16:41;10.00;;;5.53;;
77955;SDS011;67152;36.266;32.294;2023-12-29T05:19:07;11.47;;;4.73;;
77955;SDS011;67152;36.266;32.294;2023-12-29T05:21:34;16.25;;;6.45;;
77955;SDS011;67152;36.266;32.294;2023-12-29T05:24:00;33.90;;;9.18;;
77955;SDS011;67152;36.266;32.294;2023-12-29T05:26:26;13.35;;;6.07;;
77955;SDS011;67152;36.266;32.294;2023-12-29T05:28:53;9.27;;;4.82;;
77955;SDS011;67152;36.266;32.294;2023-12-29T05:31:19;26.20;;;8.25;;
77955;SDS011;67152;36.266;32.294;2023-12-29T05:33:45;15.80;;;6.68;;
77955;SDS011;67152;36.266;32.294;2023-12-29T05:36:12;14.00;;;5.65;;
77955;SDS011;67152;36.266;32.294;2023-12-29T05:38:38;16.15;;;6.22;;
77955;SDS011;67152;36.266;32.294;2023-12-29T05:41:06;21.63;;;6.50;;
77955;SDS011;67152;36.266;32.294;2023-12-29T05:43:32;22.92;;;9.43;;
77955;SDS011;67152;36.266;32.294;2023-12-29T05:46:00;24.63;;;11.00;;
77955;SDS011;67152;36.266;32.294;2023-12-29T05:48:27;15.60;;;7.80;;
77955;SDS011;67152;36.266;32.294;2023-12-29T05:50:53;20.83;;;8.02;;
77955;SDS011;67152;36.266;32.294;2023-12-29T05:53:19;10.70;;;6.18;;
77955;SDS011;67152;36.266;32.294;2023-12-29T05:55:46;15.20;;;6.20;;
77955;SDS011;67152;36.266;32.294;2023-12-29T05:58:12;14.43;;;4.63;;
77955;SDS011;67152;36.266;32.294;2023-12-29T06:00:38;14.13;;;5.67;;
77955;SDS011;67152;36.266;32.294;2023-12-29T06:03:05;15.23;;;4.82;;
77955;SDS011;67152;36.266;32.294;2023-12-29T06:05:32;13.85;;;6.05;;
77955;SDS011;67152;36.266;32.294;2023-12-29T06:10:24;15.13;;;7.23;;
77955;SDS011;67152;36.266;32.294;2023-12-29T06:12:51;13.33;;;6.70;;
77955;SDS011;67152;36.266;32.294;2023-12-29T06:15:17;22.13;;;6.57;;
77955;SDS011;67152;36.266;32.294;2023-12-29T06:17:44;24.95;;;6.68;;
77955;SDS011;67152;36.266;32.294;2023-12-29T06:20:10;19.05;;;7.05;;
77955;SDS011;67152;36.266;32.294;2023-12-29T06:22:40;18.45;;;7.53;;
77955;SDS011;67152;36.266;32.294;2023-12-29T06:25:10;17.70;;;5.82;;
77955;SDS011;67152;36.266;32.294;2023-12-29T06:27:37;15.75;;;5.90;;
77955;SDS011;67152;36.266;32.294;2023-12-29T06:30:05;12.35;;;6.60;;
77955;SDS011;67152;36.266;32.294;2023-12-29T06:32:37;13.77;;;6.10;;
77955;SDS011;67152;36.266;32.294;2023-12-29T06:35:03;27.27;;;6.47;;
77955;SDS011;67152;36.266;32.294;2023-12-29T06:39:56;12.98;;;5.15;;
77955;SDS011;67152;36.266;32.294;2023-12-29T06:42:23;15.88;;;7.20;;
77955;SDS011;67152;36.266;32.294;2023-12-29T06:44:49;15.40;;;5.97;;
77955;SDS011;67152;36.266;32.294;2023-12-29T06:47:15;17.23;;;5.93;;
77955;SDS011;67152;36.266;32.294;2023-12-29T06:49:42;18.65;;;5.63;;
77955;SDS011;67152;36.266;32.294;2023-12-29T06:52:08;12.20;;;4.93;;
77955;SDS011;67152;36.266;32.294;2023-12-29T06:54:34;18.27;;;5.85;;
77955;SDS011;67152;36.266;32.294;2023-12-29T06:57:01;11.07;;;5.50;;
77955;SDS011;67152;36.266;32.294;2023-12-29T06:59:29;16.80;;;6.03;;
77955;SDS011;67152;36.266;32.294;2023-12-29T07:01:55;17.13;;;6.18;;
77955;SDS011;67152;36.266;32.294;2023-12-29T07:04:21;16.83;;;6.05;;
77955;SDS011;67152;36.266;32.294;2023-12-29T07:06:48;12.75;;;5.75;;
77955;SDS011;67152;36.266;32.294;2023-12-29T07:09:14;20.13;;;6.60;;
77955;SDS011;67152;36.266;32.294;2023-12-29T07:11:40;18.80;;;7.40;;
77955;SDS011;67152;36.266;32.294;2023-12-29T07:14:06;29.13;;;7.87;;
77955;SDS011;67152;36.266;32.294;2023-12-29T07:16:33;38.10;;;9.18;;
77955;SDS011;67152;36.266;32.294;2023-12-29T07:18:59;28.40;;;8.70;;
77955;SDS011;67152;36.266;32.294;2023-12-29T07:21:25;15.45;;;7.93;;
77955;SDS011;67152;36.266;32.294;2023-12-29T07:23:51;19.42;;;7.10;;
77955;SDS011;67152;36.266;32.294;2023-12-29T07:26:18;15.07;;;6.85;;
77955;SDS011;67152;36.266;32.294;2023-12-29T07:28:44;27.35;;;7.95;;
77955;SDS011;67152;36.266;32.294;2023-12-29T07:31:10;11.20;;;6.65;;
77955;SDS011;67152;36.266;32.294;2023-12-29T07:33:37;16.08;;;7.32;;
77955;SDS011;67152;36.266;32.294;2023-12-29T07:36:04;24.88;;;7.90;;
77955;SDS011;67152;36.266;32.294;2023-12-29T07:38:30;21.53;;;6.93;;
77955;SDS011;67152;36.266;32.294;2023-12-29T07:40:56;16.52;;;7.30;;
77955;SDS011;67152;36.266;32.294;2023-12-29T07:43:23;19.00;;;7.27;;
77955;SDS011;67152;36.266;32.294;2023-12-29T07:45:49;25.27;;;8.68;;
77955;SDS011;67152;36.266;32.294;2023-12-29T07:48:15;21.65;;;6.88;;
77955;SDS011;67152;36.266;32.294;2023-12-29T07:50:42;17.95;;;6.28;;
77955;SDS011;67152;36.266;32.294;2023-12-29T07:53:08;17.05;;;5.38;;
77955;SDS011;67152;36.266;32.294;2023-12-29T07:55:37;15.40;;;4.50;;
77955;SDS011;67152;36.266;32.294;2023-12-29T07:58:05;7.38;;;4.18;;
77955;SDS011;67152;36.266;32.294;2023-12-29T08:00:32;13.73;;;4.53;;
77955;SDS011;67152;36.266;32.294;2023-12-29T08:05:25;20.15;;;4.55;;
77955;SDS011;67152;36.266;32.294;2023-12-29T08:07:51;14.55;;;5.55;;
77955;SDS011;67152;36.266;32.294;2023-12-29T08:10:17;14.40;;;5.05;;
77955;SDS011;67152;36.266;32.294;2023-12-29T08:12:43;13.10;;;4.97;;
77955;SDS011;67152;36.266;32.294;2023-12-29T08:15:10;23.92;;;5.53;;
77955;SDS011;67152;36.266;32.294;2023-12-29T08:17:37;19.38;;;7.85;;
77955;SDS011;67152;36.266;32.294;2023-12-29T08:20:04;24.65;;;8.02;;
77955;SDS011;67152;36.266;32.294;2023-12-29T08:22:31;20.60;;;6.72;;
77955;SDS011;67152;36.266;32.294;2023-12-29T08:24:58;23.20;;;5.75;;
77955;SDS011;67152;36.266;32.294;2023-12-29T08:27:25;27.83;;;6.90;;
77955;SDS011;67152;36.266;32.294;2023-12-29T08:29:51;18.00;;;6.15;;
77955;SDS011;67152;36.266;32.294;2023-12-29T08:32:19;20.90;;;5.40;;
77955;SDS011;67152;36.266;32.294;2023-12-29T08:37:13;15.25;;;5.38;;
77955;SDS011;67152;36.266;32.294;2023-12-29T08:39:46;22.35;;;5.63;;
77955;SDS011;67152;36.266;32.294;2023-12-29T08:42:13;16.40;;;5.55;;
77955;SDS011;67152;36.266;32.294;2023-12-29T08:44:41;11.20;;;5.20;;
77955;SDS011;67152;36.266;32.294;2023-12-29T08:47:07;14.52;;;5.13;;
77955;SDS011;67152;36.266;32.294;2023-12-29T08:49:37;15.52;;;5.65;;
77955;SDS011;67152;36.266;32.294;2023-12-29T08:52:04;15.13;;;5.80;;
77955;SDS011;67152;36.266;32.294;2023-12-29T08:54:30;19.23;;;5.22;;
77955;SDS011;67152;36.266;32.294;2023-12-29T08:56:56;25.20;;;5.10;;
77955;SDS011;67152;36.266;32.294;2023-12-29T08:59:23;20.85;;;5.63;;
77955;SDS011;67152;36.266;32.294;2023-12-29T09:01:49;25.70;;;5.82;;
77955;SDS011;67152;36.266;32.294;2023-12-29T09:04:15;13.75;;;5.07;;
77955;SDS011;67152;36.266;32.294;2023-12-29T09:06:42;28.83;;;5.47;;
77955;SDS011;67152;36.266;32.294;2023-12-29T09:09:08;23.50;;;6.00;;
77955;SDS011;67152;36.266;32.294;2023-12-29T09:11:38;28.63;;;5.38;;
77955;SDS011;67152;36.266;32.294;2023-12-29T09:14:05;17.67;;;4.28;;
77955;SDS011;67152;36.266;32.294;2023-12-29T09:16:32;14.93;;;4.15;;
77955;SDS011;67152;36.266;32.294;2023-12-29T09:18:58;24.92;;;4.72;;
77955;SDS011;67152;36.266;32.294;2023-12-29T09:21:24;16.92;;;4.20;;
77955;SDS011;67152;36.266;32.294;2023-12-29T09:26:17;17.13;;;4.40;;
77955;SDS011;67152;36.266;32.294;2023-12-29T09:31:10;12.77;;;4.63;;
77955;SDS011;67152;36.266;32.294;2023-12-29T09:33:37;19.90;;;4.60;;
77955;SDS011;67152;36.266;32.294;2023-12-29T09:36:04;8.82;;;3.45;;
77955;SDS011;67152;36.266;32.294;2023-12-29T09:38:30;7.90;;;3.58;;
77955;SDS011;67152;36.266;32.294;2023-12-29T09:43:28;6.85;;;2.72;;
77955;SDS011;67152;36.266;32.294;2023-12-29T09:45:55;13.68;;;3.05;;
77955;SDS011;67152;36.266;32.294;2023-12-29T09:48:22;5.97;;;3.00;;
77955;SDS011;67152;36.266;32.294;2023-12-29T09:50:52;10.50;;;3.33;;
77955;SDS011;67152;36.266;32.294;2023-12-29T09:53:23;11.73;;;3.80;;
77955;SDS011;67152;36.266;32.294;2023-12-29T09:55:50;10.75;;;3.20;;
77955;SDS011;67152;36.266;32.294;2023-12-29T09:58:19;10.43;;;3.15;;
77955;SDS011;67152;36.266;32.294;2023-12-29T10:00:48;12.75;;;3.22;;
77955;SDS011;67152;36.266;32.294;2023-12-29T10:03:17;7.13;;;2.88;;
77955;SDS011;67152;36.266;32.294;2023-12-29T10:05:44;9.70;;;3.10;;
77955;SDS011;67152;36.266;32.294;2023-12-29T10:08:15;6.30;;;2.97;;
77955;SDS011;67152;36.266;32.294;2023-12-29T10:10:42;7.90;;;3.20;;
77955;SDS011;67152;36.266;32.294;2023-12-29T10:13:09;8.18;;;2.88;;
77955;SDS011;67152;36.266;32.294;2023-12-29T10:15:44;5.70;;;3.10;;
77955;SDS011;67152;36.266;32.294;2023-12-29T10:18:30;9.68;;;2.95;;
77955;SDS011;67152;36.266;32.294;2023-12-29T10:21:05;4.90;;;2.72;;
77955;SDS011;67152;36.266;32.294;2023-12-29T10:23:42;8.40;;;2.95;;
77955;SDS011;67152;36.266;32.294;2023-12-29T10:26:14;7.32;;;2.90;;
77955;SDS011;67152;36.266;32.294;2023-12-29T10:28:41;6.13;;;2.95;;
77955;SDS011;67152;36.266;32.294;2023-12-29T10:31:07;6.18;;;2.65;;
77955;SDS011;67152;36.266;32.294;2023-12-29T10:33:35;11.07;;;2.92;;
77955;SDS011;67152;36.266;32.294;2023-12-29T10:36:02;7.78;;;3.67;;
77955;SDS011;67152;36.266;32.294;2023-12-29T10:38:31;9.43;;;3.13;;
77955;SDS011;67152;36.266;32.294;2023-12-29T10:41:14;8.02;;;3.10;;
77955;SDS011;67152;36.266;32.294;2023-12-29T10:43:42;5.38;;;3.08;;
77955;SDS011;67152;36.266;32.294;2023-12-29T10:46:10;5.50;;;3.35;;
77955;SDS011;67152;36.266;32.294;2023-12-29T10:48:37;12.45;;;3.53;;
77955;SDS011;67152;36.266;32.294;2023-12-29T10:51:04;7.18;;;3.13;;
77955;SDS011;67152;36.266;32.294;2023-12-29T10:53:32;44.33;;;3.65;;
77955;SDS011;67152;36.266;32.294;2023-12-29T10:55:59;7.88;;;2.97;;
77955;SDS011;67152;36.266;32.294;2023-12-29T10:58:26;9.25;;;3.17;;
77955;SDS011;67152;36.266;32.294;2023-12-29T11:00:58;9.88;;;2.80;;
77955;SDS011;67152;36.266;32.294;2023-12-29T11:03:27;9.00;;;3.45;;
77955;SDS011;67152;36.266;32.294;2023-12-29T11:05:59;3.53;;;2.80;;
77955;SDS011;67152;36.266;32.294;2023-12-29T11:08:27;13.38;;;3.65;;
77955;SDS011;67152;36.266;32.294;2023-12-29T11:10:54;27.10;;;4.30;;
77955;SDS011;67152;36.266;32.294;2023-12-29T11:15:47;8.83;;;2.93;;
77955;SDS011;67152;36.266;32.294;2023-12-29T11:18:15;5.28;;;3.15;;
77955;SDS011;67152;36.266;32.294;2023-12-29T11:20:43;5.55;;;2.70;;
77955;SDS011;67152;36.266;32.294;2023-12-29T11:23:10;6.20;;;2.97;;
77955;SDS011;67152;36.266;32.294;2023-12-29T11:25:40;11.93;;;3.45;;
77955;SDS011;67152;36.266;32.294;2023-12-29T11:28:08;13.98;;;3.20;;
77955;SDS011;67152;36.266;32.294;2023-12-29T11:30:37;8.35;;;3.22;;
77955;SDS011;67152;36.266;32.294;2023-12-29T11:33:12;20.17;;;3.38;;
77955;SDS011;67152;36.266;32.294;2023-12-29T11:35:44;13.88;;;3.33;;
77955;SDS011;67152;36.266;32.294;2023-12-29T11:44:11;20.80;;;4.13;;
77955;SDS011;67152;36.266;32.294;2023-12-29T11:46:38;7.60;;;3.30;;
77955;SDS011;67152;36.266;32.294;2023-12-29T11:49:05;6.97;;;3.55;;
77955;SDS011;67152;36.266;32.294;2023-12-29T11:51:35;15.48;;;3.45;;
77955;SDS011;67152;36.266;32.294;2023-12-29T11:54:06;10.43;;;3.20;;
77955;SDS011;67152;36.266;32.294;2023-12-29T11:56:36;6.80;;;3.40;;
77955;SDS011;67152;36.266;32.294;2023-12-29T12:01:39;6.10;;;3.05;;
77955;SDS011;67152;36.266;32.294;2023-12-29T12:07:04;12.93;;;3.10;;
77955;SDS011;67152;36.266;32.294;2023-12-29T12:09:31;16.30;;;3.78;;
77955;SDS011;67152;36.266;32.294;2023-12-29T12:17:10;6.63;;;2.55;;
77955;SDS011;67152;36.266;32.294;2023-12-29T12:19:36;10.75;;;3.92;;
77955;SDS011;67152;36.266;32.294;2023-12-29T12:22:03;7.05;;;3.38;;
77955;SDS011;67152;36.266;32.294;2023-12-29T12:24:31;7.53;;;2.95;;
77955;SDS011;67152;36.266;32.294;2023-12-29T12:26:59;5.55;;;2.60;;
77955;SDS011;67152;36.266;32.294;2023-12-29T12:29:28;5.85;;;3.17;;
77955;SDS011;67152;36.266;32.294;2023-12-29T12:31:57;9.85;;;3.45;;
77955;SDS011;67152;36.266;32.294;2023-12-29T12:34:25;10.00;;;3.42;;
77955;SDS011;67152;36.266;32.294;2023-12-29T12:36:52;60.78;;;5.13;;
77955;SDS011;67152;36.266;32.294;2023-12-29T12:39:22;6.63;;;3.20;;
77955;SDS011;67152;36.266;32.294;2023-12-29T12:44:15;8.80;;;3.10;;
77955;SDS011;67152;36.266;32.294;2023-12-29T12:49:16;10.50;;;3.45;;
77955;SDS011;67152;36.266;32.294;2023-12-29T12:51:46;12.63;;;3.42;;
77955;SDS011;67152;36.266;32.294;2023-12-29T12:54:15;9.05;;;3.45;;
77955;SDS011;67152;36.266;32.294;2023-12-29T12:56:44;13.88;;;3.60;;
77955;SDS011;67152;36.266;32.294;2023-12-29T12:59:10;6.55;;;2.80;;
77955;SDS011;67152;36.266;32.294;2023-12-29T13:01:37;7.70;;;3.15;;
77955;SDS011;67152;36.266;32.294;2023-12-29T13:04:04;8.32;;;2.70;;
77955;SDS011;67152;36.266;32.294;2023-12-29T13:06:32;6.18;;;3.10;;
77955;SDS011;67152;36.266;32.294;2023-12-29T13:08:58;7.32;;;3.45;;
77955;SDS011;67152;36.266;32.294;2023-12-29T13:11:25;15.32;;;3.53;;
77955;SDS011;67152;36.266;32.294;2023-12-29T13:13:51;14.88;;;3.20;;
77955;SDS011;67152;36.266;32.294;2023-12-29T13:16:42;12.73;;;3.80;;
77955;SDS011;67152;36.266;32.294;2023-12-29T13:19:15;13.27;;;3.53;;
77955;SDS011;67152;36.266;32.294;2023-12-29T13:21:42;6.88;;;3.03;;
77955;SDS011;67152;36.266;32.294;2023-12-29T13:24:08;12.93;;;4.00;;
77955;SDS011;67152;36.266;32.294;2023-12-29T13:26:36;8.90;;;3.08;;
77955;SDS011;67152;36.266;32.294;2023-12-29T13:29:03;9.05;;;3.30;;
77955;SDS011;67152;36.266;32.294;2023-12-29T13:31:29;10.33;;;4.20;;
77955;SDS011;67152;36.266;32.294;2023-12-29T13:33:57;13.63;;;3.70;;
77955;SDS011;67152;36.266;32.294;2023-12-29T13:36:38;38.88;;;4.55;;
77955;SDS011;67152;36.266;32.294;2023-12-29T13:39:31;9.73;;;3.70;;
77955;SDS011;67152;36.266;32.294;2023-12-29T13:42:07;12.65;;;3.05;;
77955;SDS011;67152;36.266;32.294;2023-12-29T13:44:39;8.00;;;3.40;;
77955;SDS011;67152;36.266;32.294;2023-12-29T13:47:07;5.68;;;2.78;;
77955;SDS011;67152;36.266;32.294;2023-12-29T13:49:33;20.05;;;3.03;;
77955;SDS011;67152;36.266;32.294;2023-12-29T13:52:04;9.02;;;3.10;;
77955;SDS011;67152;36.266;32.294;2023-12-29T13:54:31;7.63;;;3.78;;
77955;SDS011;67152;36.266;32.294;2023-12-29T13:57:09;12.30;;;3.65;;
77955;SDS011;67152;36.266;32.294;2023-12-29T13:59:36;13.10;;;3.22;;
77955;SDS011;67152;36.266;32.294;2023-12-29T14:02:27;8.88;;;3.22;;
77955;SDS011;67152;36.266;32.294;2023-12-29T14:05:11;14.70;;;3.00;;
77955;SDS011;67152;36.266;32.294;2023-12-29T14:07:37;8.85;;;3.15;;
77955;SDS011;67152;36.266;32.294;2023-12-29T14:10:19;5.90;;;3.28;;
77955;SDS011;67152;36.266;32.294;2023-12-29T14:12:47;8.43;;;3.35;;
77955;SDS011;67152;36.266;32.294;2023-12-29T14:15:13;6.32;;;3.10;;
77955;SDS011;67152;36.266;32.294;2023-12-29T14:17:40;6.95;;;3.33;;
77955;SDS011;67152;36.266;32.294;2023-12-29T14:20:06;7.70;;;3.13;;
77955;SDS011;67152;36.266;32.294;2023-12-29T14:22:33;11.00;;;3.58;;
77955;SDS011;67152;36.266;32.294;2023-12-29T14:25:03;10.13;;;3.43;;
77955;SDS011;67152;36.266;32.294;2023-12-29T14:27:31;31.63;;;4.30;;
77955;SDS011;67152;36.266;32.294;2023-12-29T14:29:57;23.80;;;4.38;;
77955;SDS011;67152;36.266;32.294;2023-12-29T14:32:24;20.85;;;4.63;;
77955;SDS011;67152;36.266;32.294;2023-12-29T14:34:50;34.90;;;5.15;;
77955;SDS011;67152;36.266;32.294;2023-12-29T14:37:19;210.75;;;12.52;;
77955;SDS011;67152;36.266;32.294;2023-12-29T14:39:51;54.15;;;8.65;;
77955;SDS011;67152;36.266;32.294;2023-12-29T14:42:18;58.90;;;8.88;;
77955;SDS011;67152;36.266;32.294;2023-12-29T14:44:47;140.15;;;11.95;;
77955;SDS011;67152;36.266;32.294;2023-12-29T14:47:14;126.45;;;13.35;;
77955;SDS011;67152;36.266;32.294;2023-12-29T14:49:41;76.13;;;9.90;;
77955;SDS011;67152;36.266;32.294;2023-12-29T14:52:08;120.10;;;13.85;;
77955;SDS011;67152;36.266;32.294;2023-12-29T14:54:35;75.63;;;13.10;;
77955;SDS011;67152;36.266;32.294;2023-12-29T14:57:01;135.85;;;16.90;;
77955;SDS011;67152;36.266;32.294;2023-12-29T14:59:27;118.25;;;17.63;;
77955;SDS011;67152;36.266;32.294;2023-12-29T15:01:56;117.13;;;18.08;;
77955;SDS011;67152;36.266;32.294;2023-12-29T15:04:22;106.20;;;28.75;;
77955;SDS011;67152;36.266;32.294;2023-12-29T15:06:49;68.70;;;21.50;;
77955;SDS011;67152;36.266;32.294;2023-12-29T15:09:15;106.70;;;23.80;;
77955;SDS011;67152;36.266;32.294;2023-12-29T15:11:41;115.15;;;20.60;;
77955;SDS011;67152;36.266;32.294;2023-12-29T15:14:08;101.03;;;18.55;;
77955;SDS011;67152;36.266;32.294;2023-12-29T15:16:34;94.93;;;18.42;;
77955;SDS011;67152;36.266;32.294;2023-12-29T15:19:01;94.75;;;17.20;;